Time;durP1;ratioP1;P1;durP2;ratioP2;P2;SDS_P1;SDS_P2;PMS_P1;PMS_P2;Temp;Humidity;BMP_temperature;BMP_pressure;BME280_temperature;BME280_humidity;BME280_pressure;Samples;Min_cycle;Max_cycle;Signal;HPM_P1;HPM_P2
2021/09/03 00:02:04;;;;;;;;;;;18.80;91.20;;;;;;5071418;28;19919;-52
2021/09/03 00:05:09;;;;;;;;;;;18.80;91.10;;;;;;5072040;28;19915;-52
2021/09/03 00:08:13;;;;;;;;;;;18.80;91.20;;;;;;5040766;28;19924;-51
2021/09/03 00:11:17;;;;;;;;;;;18.80;91.30;;;;;;5069890;28;19908;-52
2021/09/03 00:14:21;;;;;;;;;;;18.70;91.40;;;;;;5071292;28;20198;-51
2021/09/03 00:17:26;;;;;;;;;;;18.70;91.50;;;;;;5072683;28;19938;-56
2021/09/03 00:20:29;;;;;;;;;;;18.60;91.70;;;;;;5072138;28;19939;-52
2021/09/03 00:23:33;;;;;;;;;;;18.70;91.70;;;;;;5071127;28;20169;-52
2021/09/03 00:26:50;;;;;;;;;;;18.70;91.70;;;;;;5072041;28;19916;-52
2021/09/03 00:29:53;;;;;;;;;;;18.60;91.30;;;;;;5071510;28;19920;-53
2021/09/03 00:32:59;;;;;;;;;;;18.60;92.00;;;;;;5070784;28;20298;-55
2021/09/03 00:36:03;;;;;;;;;;;18.70;92.70;;;;;;5071368;28;19931;-55
2021/09/03 00:39:07;;;;;;;;;;;18.80;92.70;;;;;;5072042;28;19931;-53
2021/09/03 00:42:12;;;;;;;;;;;18.80;92.40;;;;;;5070688;28;19918;-54
2021/09/03 00:45:16;;;;;;;;;;;18.80;92.60;;;;;;5071158;28;20329;-51
2021/09/03 00:48:20;;;;;;;;;;;18.70;92.90;;;;;;5072062;28;19915;-51
2021/09/03 00:51:24;;;;;;;;;;;18.70;93.00;;;;;;5070431;28;19915;-52
2021/09/03 00:54:28;;;;;;;;;;;18.70;93.30;;;;;;5070750;28;20298;-52
2021/09/03 00:57:32;;;;;;;;;;;18.60;93.40;;;;;;5071792;28;20413;-55
2021/09/03 01:00:36;;;;;;;;;;;18.60;93.80;;;;;;5070355;28;20316;-51
2021/09/03 01:03:41;;;;;;;;;;;18.60;94.00;;;;;;5070203;28;19916;-52
2021/09/03 01:06:45;;;;;;;;;;;18.50;93.90;;;;;;5070407;28;19915;-51
2021/09/03 01:09:49;;;;;;;;;;;18.50;93.70;;;;;;5070831;28;19924;-51
2021/09/03 01:12:54;;;;;;;;;;;18.40;93.40;;;;;;5069901;28;19916;-53
2021/09/03 01:15:58;;;;;;;;;;;18.40;92.80;;;;;;5071151;28;20150;-52
2021/09/03 01:19:02;;;;;;;;;;;18.40;93.00;;;;;;5070900;28;19935;-52
2021/09/03 01:22:07;;;;;;;;;;;18.40;92.90;;;;;;5069765;28;20294;-51
2021/09/03 01:25:11;;;;;;;;;;;18.40;92.90;;;;;;5071309;28;19923;-51
2021/09/03 01:28:14;;;;;;;;;;;18.40;93.00;;;;;;5071196;28;19915;-52
2021/09/03 01:31:18;;;;;;;;;;;18.30;93.20;;;;;;5069636;28;19916;-51
2021/09/03 01:34:23;;;;;;;;;;;18.30;93.10;;;;;;5070377;28;19924;-55
2021/09/03 01:37:28;;;;;;;;;;;18.30;93.20;;;;;;5070581;28;20290;-53
2021/09/03 01:40:32;;;;;;;;;;;18.40;92.80;;;;;;5069686;28;19919;-53
2021/09/03 01:43:36;;;;;;;;;;;18.30;92.70;;;;;;5070288;28;19919;-54
2021/09/03 01:46:40;;;;;;;;;;;18.30;93.00;;;;;;5070489;28;19916;-52
2021/09/03 01:49:44;;;;;;;;;;;18.30;93.40;;;;;;5069314;28;20385;-54
2021/09/03 01:52:48;;;;;;;;;;;18.30;93.20;;;;;;5069107;28;19919;-53
2021/09/03 01:55:52;;;;;;;;;;;18.30;93.00;;;;;;5070120;28;19927;-56
2021/09/03 01:58:57;;;;;;;;;;;18.20;93.10;;;;;;5069519;28;19908;-51
2021/09/03 02:02:01;;;;;;;;;;;18.10;93.40;;;;;;5069306;28;19920;-53
2021/09/03 02:05:05;;;;;;;;;;;18.00;93.90;;;;;;5071018;28;19919;-53
2021/09/03 02:08:09;;;;;;;;;;;17.90;94.10;;;;;;5069620;28;19939;-52
2021/09/03 02:11:13;;;;;;;;;;;17.90;94.00;;;;;;5069215;28;19919;-51
2021/09/03 02:14:18;;;;;;;;;;;18.00;94.30;;;;;;5070555;28;19923;-53
2021/09/03 02:17:21;;;;;;;;;;;18.00;93.80;;;;;;5069633;28;19915;-54
2021/09/03 02:20:25;;;;;;;;;;;18.00;93.70;;;;;;5069293;28;19908;-56
2021/09/03 02:23:31;;;;;;;;;;;18.00;93.90;;;;;;5070185;28;20326;-55
2021/09/03 02:26:35;;;;;;;;;;;17.90;93.80;;;;;;5070002;28;19919;-53
2021/09/03 02:29:39;;;;;;;;;;;17.90;94.00;;;;;;5069160;28;19943;-51
2021/09/03 02:32:43;;;;;;;;;;;17.90;94.30;;;;;;5069903;28;20283;-52
2021/09/03 02:35:47;;;;;;;;;;;17.80;94.70;;;;;;5070016;28;19923;-52
2021/09/03 02:38:52;;;;;;;;;;;17.80;94.70;;;;;;5068117;28;19919;-53
2021/09/03 02:41:56;;;;;;;;;;;17.80;94.60;;;;;;5069760;28;20393;-53
2021/09/03 02:45:00;;;;;;;;;;;17.70;94.50;;;;;;5070370;28;19919;-55
2021/09/03 02:48:05;;;;;;;;;;;17.70;94.90;;;;;;5068967;28;19931;-52
2021/09/03 02:51:09;;;;;;;;;;;17.60;94.80;;;;;;5069194;28;20385;-52
2021/09/03 02:54:13;;;;;;;;;;;17.50;95.10;;;;;;5070004;28;19935;-51
2021/09/03 02:57:17;;;;;;;;;;;17.50;95.30;;;;;;5069405;28;20293;-52
2021/09/03 03:00:21;;;;;;;;;;;17.30;95.20;;;;;;5069095;28;19908;-52
2021/09/03 03:03:25;;;;;;;;;;;17.30;95.80;;;;;;5070010;28;19915;-51
2021/09/03 03:06:28;;;;;;;;;;;17.30;95.80;;;;;;5069459;28;19908;-51
2021/09/03 03:09:32;;;;;;;;;;;17.30;95.80;;;;;;5068905;28;19915;-52
2021/09/03 03:12:37;;;;;;;;;;;17.30;95.80;;;;;;5069964;28;19920;-52
2021/09/03 03:15:41;;;;;;;;;;;17.20;96.20;;;;;;5069383;28;19912;-51
2021/09/03 03:18:45;;;;;;;;;;;17.20;96.40;;;;;;5068738;28;19908;-51
2021/09/03 03:21:49;;;;;;;;;;;17.10;96.80;;;;;;5068964;28;19935;-55
2021/09/03 03:24:53;;;;;;;;;;;17.00;96.90;;;;;;5069464;28;19915;-51
2021/09/03 03:27:56;;;;;;;;;;;17.00;97.10;;;;;;5068086;28;19919;-53
2021/09/03 03:31:01;;;;;;;;;;;17.00;96.90;;;;;;5070549;28;19919;-54
2021/09/03 03:34:06;;;;;;;;;;;17.00;96.90;;;;;;5073439;28;19935;-56
2021/09/03 03:37:09;;;;;;;;;;;16.90;97.10;;;;;;5071708;28;20275;-52
2021/09/03 03:40:14;;;;;;;;;;;16.90;97.20;;;;;;5072415;28;20094;-54
2021/09/03 03:43:18;;;;;;;;;;;16.90;97.20;;;;;;5053354;28;19905;-56
2021/09/03 03:46:22;;;;;;;;;;;16.90;97.30;;;;;;5057943;28;20290;-52
2021/09/03 03:49:26;;;;;;;;;;;16.90;97.20;;;;;;5071525;28;19912;-54
2021/09/03 03:52:31;;;;;;;;;;;16.90;97.10;;;;;;5072481;28;19920;-54
2021/09/03 03:55:35;;;;;;;;;;;16.90;97.30;;;;;;5072342;28;19919;-54
2021/09/03 03:58:39;;;;;;;;;;;16.90;97.40;;;;;;5071283;28;19915;-53
2021/09/03 04:01:42;;;;;;;;;;;16.90;97.30;;;;;;5072936;28;19912;-52
2021/09/03 04:04:48;;;;;;;;;;;16.90;97.70;;;;;;5072620;28;19915;-54
2021/09/03 04:07:52;;;;;;;;;;;16.90;98.00;;;;;;5071617;28;19931;-56
2021/09/03 04:10:57;;;;;;;;;;;16.90;97.70;;;;;;5073128;28;19916;-51
2021/09/03 04:14:00;;;;;;;;;;;16.80;98.10;;;;;;5072893;28;19912;-54
2021/09/03 04:17:04;;;;;;;;;;;16.60;98.60;;;;;;5071637;28;19915;-51
2021/09/03 04:20:09;;;;;;;;;;;16.50;99.10;;;;;;5072142;28;19923;-51
2021/09/03 04:23:13;;;;;;;;;;;16.50;99.50;;;;;;5072520;28;19919;-55
2021/09/03 04:26:17;;;;;;;;;;;16.40;99.90;;;;;;5071457;28;19919;-54
2021/09/03 04:29:21;;;;;;;;;;;16.30;99.80;;;;;;5071864;28;19909;-56
2021/09/03 04:32:25;;;;;;;;;;;16.30;99.90;;;;;;5072019;28;19912;-56
2021/09/03 04:35:29;;;;;;;;;;;16.20;99.90;;;;;;5071190;28;20011;-58
2021/09/03 04:38:34;;;;;;;;;;;16.20;99.90;;;;;;5070973;28;19923;-54
2021/09/03 04:41:38;;;;;;;;;;;16.20;99.90;;;;;;5072560;28;19919;-55
2021/09/03 04:44:42;;;;;;;;;;;16.20;99.90;;;;;;5070860;28;19919;-53
2021/09/03 04:47:49;;;;;;;;;;;16.10;99.90;;;;;;5071315;28;20472;-52
2021/09/03 04:50:53;;;;;;;;;;;16.20;99.90;;;;;;5072367;28;20291;-52
2021/09/03 04:53:57;;;;;;;;;;;16.30;99.90;;;;;;5071290;28;19920;-52
2021/09/03 04:57:02;;;;;;;;;;;16.40;99.90;;;;;;5070814;28;19915;-54
2021/09/03 05:00:07;;;;;;;;;;;16.50;99.90;;;;;;5071679;28;19939;-55
2021/09/03 05:03:10;;;;;;;;;;;16.50;99.90;;;;;;5058764;28;19912;-52
2021/09/03 05:06:15;;;;;;;;;;;16.50;99.90;;;;;;5058523;28;19941;-51
2021/09/03 05:09:21;;;;;;;;;;;16.50;99.90;;;;;;5070732;28;19915;-52
2021/09/03 05:12:25;;;;;;;;;;;16.40;99.90;;;;;;5071578;28;19919;-54
2021/09/03 05:15:33;;;;;;;;;;;16.30;99.90;;;;;;5070131;28;20289;-51
2021/09/03 05:18:39;;;;;;;;;;;16.30;99.90;;;;;;5070380;28;19916;-51
2021/09/03 05:21:42;;;;;;;;;;;16.30;99.90;;;;;;5071286;28;19923;-55
2021/09/03 05:24:47;;;;;;;;;;;16.40;99.90;;;;;;5070091;28;19923;-51
2021/09/03 05:27:51;;;;;;;;;;;16.50;99.90;;;;;;5070671;28;20262;-51
2021/09/03 05:30:56;;;;;;;;;;;17.80;99.90;;;;;;5071248;28;19916;-52
2021/09/03 05:34:00;;;;;;;;;;;20.70;97.50;;;;;;5070453;28;19916;-52
2021/09/03 05:37:04;;;;;;;;;;;23.20;93.40;;;;;;5069975;28;19924;-55
2021/09/03 05:40:09;;;;;;;;;;;25.40;89.70;;;;;;5058302;28;19912;-52
2021/09/03 05:43:13;;;;;;;;;;;27.10;84.40;;;;;;5057664;28;19916;-52
2021/09/03 05:46:17;;;;;;;;;;;28.30;79.50;;;;;;5067133;28;19943;-53
2021/09/03 05:49:21;;;;;;;;;;;29.30;76.80;;;;;;5069303;28;19931;-50
2021/09/03 05:52:25;;;;;;;;;;;30.00;74.50;;;;;;5068586;28;19916;-52
2021/09/03 05:55:29;;;;;;;;;;;30.40;72.20;;;;;;5069595;28;19919;-51
2021/09/03 05:58:37;;;;;;;;;;;30.50;70.30;;;;;;5065376;28;19916;-52
2021/09/03 06:01:42;;;;;;;;;;;30.40;70.30;;;;;;5067441;28;19939;-53
2021/09/03 06:04:46;;;;;;;;;;;30.40;69.80;;;;;;5067524;28;19916;-53
2021/09/03 06:07:51;;;;;;;;;;;30.80;67.90;;;;;;5069146;28;19919;-51
2021/09/03 06:10:55;;;;;;;;;;;30.80;67.60;;;;;;5067836;28;19908;-52
2021/09/03 06:13:59;;;;;;;;;;;31.00;67.40;;;;;;5067142;28;19935;-54
2021/09/03 06:17:03;;;;;;;;;;;31.30;67.10;;;;;;5060334;28;20283;-54
2021/09/03 06:20:07;;;;;;;;;;;31.60;65.20;;;;;;5061162;28;19919;-53
2021/09/03 06:23:12;;;;;;;;;;;32.00;64.90;;;;;;5061822;28;19915;-52
2021/09/03 06:26:16;;;;;;;;;;;32.50;63.30;;;;;;5062673;28;19983;-57
2021/09/03 06:32:42;;;;;;;;;;;30.80;63.70;;;;;;5066791;28;20419;-55
2021/09/03 06:35:46;;;;;;;;;;;30.30;64.40;;;;;;5068226;28;19919;-53
2021/09/03 06:38:50;;;;;;;;;;;29.20;65.20;;;;;;5069302;28;20282;-56
2021/09/03 06:41:55;;;;;;;;;;;28.80;67.00;;;;;;5069089;28;19927;-51
2021/09/03 06:44:59;;;;;;;;;;;30.10;66.30;;;;;;5067048;28;20302;-55
2021/09/03 06:48:04;;;;;;;;;;;30.90;64.60;;;;;;5068067;28;19916;-51
2021/09/03 06:51:08;;;;;;;;;;;29.10;64.90;;;;;;5068924;28;19920;-53
2021/09/03 06:54:12;;;;;;;;;;;28.80;66.00;;;;;;5068006;28;20289;-51
2021/09/03 06:57:17;;;;;;;;;;;28.10;66.00;;;;;;5068398;28;19915;-51
2021/09/03 07:00:21;;;;;;;;;;;26.50;68.50;;;;;;5069021;28;20472;-51
2021/09/03 07:03:25;;;;;;;;;;;27.10;68.40;;;;;;5068206;28;19916;-50
2021/09/03 07:06:32;;;;;;;;;;;28.10;66.30;;;;;;5074223;28;19920;-51
2021/09/03 07:09:36;;;;;;;;;;;28.60;65.10;;;;;;5086368;28;19961;-52
2021/09/03 07:12:40;;;;;;;;;;;29.90;63.90;;;;;;5068630;28;20313;-52
2021/09/03 07:15:44;;;;;;;;;;;31.00;61.80;;;;;;5071099;28;19927;-51
2021/09/03 07:18:48;;;;;;;;;;;31.70;61.70;;;;;;5060310;28;19912;-52
2021/09/03 07:21:53;;;;;;;;;;;32.80;60.10;;;;;;5072114;28;19919;-51
2021/09/03 07:24:57;;;;;;;;;;;33.40;59.40;;;;;;5072049;28;20393;-51
2021/09/03 07:28:01;;;;;;;;;;;33.70;57.60;;;;;;5057697;28;19908;-51
2021/09/03 07:31:05;;;;;;;;;;;31.70;57.90;;;;;;5072089;28;19908;-51
2021/09/03 07:34:09;;;;;;;;;;;32.20;59.40;;;;;;5071633;28;19917;-52
2021/09/03 07:37:13;;;;;;;;;;;32.00;58.40;;;;;;5072558;28;19916;-52
2021/09/03 07:40:18;;;;;;;;;;;33.70;57.80;;;;;;5066554;28;19915;-51
2021/09/03 07:43:21;;;;;;;;;;;34.90;57.10;;;;;;5070899;28;19919;-52
2021/09/03 07:46:25;;;;;;;;;;;36.50;55.10;;;;;;5072735;28;19915;-52
2021/09/03 07:49:30;;;;;;;;;;;37.40;54.40;;;;;;5072134;28;20291;-56
2021/09/03 07:52:36;;;;;;;;;;;38.30;53.30;;;;;;5069474;28;19919;-53
2021/09/03 07:55:40;;;;;;;;;;;38.90;52.20;;;;;;5073053;28;19919;-51
2021/09/03 07:58:44;;;;;;;;;;;39.60;52.30;;;;;;5072142;28;19917;-50
2021/09/03 08:01:47;;;;;;;;;;;38.80;51.80;;;;;;5069795;28;19931;-51
2021/09/03 08:04:53;;;;;;;;;;;36.70;53.20;;;;;;5071289;28;19950;-52
2021/09/03 08:07:57;;;;;;;;;;;35.20;55.10;;;;;;5072233;28;19919;-50
2021/09/03 08:11:00;;;;;;;;;;;34.20;55.70;;;;;;5070751;28;19916;-51
2021/09/03 08:14:04;;;;;;;;;;;31.20;57.80;;;;;;5057683;28;19915;-53
2021/09/03 08:17:08;;;;;;;;;;;30.00;60.20;;;;;;5072018;28;19909;-52
2021/09/03 08:20:14;;;;;;;;;;;29.80;60.50;;;;;;5069917;28;20298;-52
2021/09/03 08:23:17;;;;;;;;;;;29.40;61.60;;;;;;5068674;28;20405;-52
2021/09/03 08:26:21;;;;;;;;;;;29.00;63.00;;;;;;5072342;28;19919;-52
2021/09/03 08:29:27;;;;;;;;;;;29.00;63.20;;;;;;5071606;28;19919;-53
2021/09/03 08:32:31;;;;;;;;;;;27.50;64.40;;;;;;5067435;28;19908;-51
2021/09/03 08:35:35;;;;;;;;;;;27.10;66.20;;;;;;5071261;28;20405;-51
2021/09/03 08:38:39;;;;;;;;;;;26.10;67.40;;;;;;5067423;28;19927;-52
2021/09/03 08:41:44;;;;;;;;;;;26.10;69.00;;;;;;5069449;28;19916;-51
2021/09/03 08:44:51;;;;;;;;;;;26.70;67.90;;;;;;5071441;28;19974;-51
2021/09/03 08:47:55;;;;;;;;;;;26.80;67.00;;;;;;5070031;28;19939;-56
2021/09/03 08:50:59;;;;;;;;;;;27.90;67.30;;;;;;5066409;28;19916;-56
2021/09/03 08:54:03;;;;;;;;;;;29.00;65.50;;;;;;5066107;28;19943;-55
2021/09/03 08:57:11;;;;;;;;;;;30.20;64.00;;;;;;5067643;28;19919;-52
2021/09/03 09:00:22;;;;;;;;;;;31.30;62.60;;;;;;5070758;28;19935;-52
2021/09/03 09:03:32;;;;;;;;;;;31.50;61.80;;;;;;5069660;28;20295;-53
2021/09/03 09:06:37;;;;;;;;;;;32.30;61.10;;;;;;5056508;28;19915;-51
2021/09/03 09:09:43;;;;;;;;;;;32.90;60.40;;;;;;5058083;28;19923;-54
2021/09/03 09:12:47;;;;;;;;;;;35.30;58.90;;;;;;5069571;28;20429;-56
2021/09/03 09:16:01;;;;;;;;;;;38.10;56.10;;;;;;5067184;28;19943;-53
2021/09/03 09:19:07;;;;;;;;;;;39.60;53.90;;;;;;5071203;28;19923;-58
2021/09/03 09:22:11;;;;;;;;;;;40.90;52.20;;;;;;5067512;28;19940;-55
2021/09/03 09:25:17;;;;;;;;;;;42.40;50.50;;;;;;5069554;28;19935;-54
2021/09/03 09:28:21;;;;;;;;;;;43.50;49.00;;;;;;5069789;28;19919;-54
2021/09/03 09:31:29;;;;;;;;;;;43.40;48.10;;;;;;5069630;28;19931;-52
2021/09/03 09:34:37;;;;;;;;;;;43.50;47.80;;;;;;5069724;28;19927;-56
2021/09/03 09:37:51;;;;;;;;;;;43.60;47.60;;;;;;5053621;28;19915;-52
2021/09/03 09:40:58;;;;;;;;;;;44.10;47.00;;;;;;5068520;28;19923;-54
2021/09/03 09:44:03;;;;;;;;;;;44.80;46.00;;;;;;5069235;28;19916;-53
2021/09/03 09:47:08;;;;;;;;;;;46.20;45.50;;;;;;5069606;28;19931;-52
2021/09/03 09:50:23;;;;;;;;;;;46.60;45.00;;;;;;5061265;28;19919;-57
2021/09/03 09:53:27;;;;;;;;;;;45.10;45.00;;;;;;5068002;28;19923;-53
2021/09/03 09:56:34;;;;;;;;;;;43.90;45.60;;;;;;5063135;28;19919;-55
2021/09/03 09:59:38;;;;;;;;;;;44.60;45.20;;;;;;5066631;28;19916;-53
2021/09/03 10:02:43;;;;;;;;;;;45.10;45.40;;;;;;5068213;28;19915;-54
2021/09/03 10:05:47;;;;;;;;;;;43.50;45.20;;;;;;5068433;28;19931;-52
2021/09/03 10:08:53;;;;;;;;;;;44.40;45.30;;;;;;5064238;28;19919;-53
2021/09/03 10:11:59;;;;;;;;;;;44.50;45.50;;;;;;5069511;28;19948;-55
2021/09/03 10:15:03;;;;;;;;;;;45.30;44.70;;;;;;5068531;28;19927;-52
2021/09/03 10:18:09;;;;;;;;;;;44.50;44.20;;;;;;5070688;28;19927;-55
2021/09/03 10:21:13;;;;;;;;;;;46.00;44.00;;;;;;5073519;28;20321;-54
2021/09/03 10:24:23;;;;;;;;;;;46.40;43.20;;;;;;5056387;28;19915;-53
2021/09/03 10:27:27;;;;;;;;;;;47.10;42.20;;;;;;5068494;28;19912;-54
2021/09/03 10:30:31;;;;;;;;;;;47.70;42.50;;;;;;5069299;28;19919;-59
2021/09/03 10:33:36;;;;;;;;;;;47.20;41.80;;;;;;5067955;28;19915;-55
2021/09/03 10:36:57;;;;;;;;;;;48.40;41.40;;;;;;5068913;28;19935;-57
2021/09/03 10:40:06;;;;;;;;;;;47.10;41.30;;;;;;5069392;28;20391;-53
2021/09/03 10:43:10;;;;;;;;;;;41.40;43.30;;;;;;5068200;28;19995;-53
2021/09/03 10:46:15;;;;;;;;;;;43.00;43.10;;;;;;5068415;28;20026;-54
2021/09/03 10:49:22;;;;;;;;;;;41.10;43.40;;;;;;5070143;28;19963;-52
2021/09/03 10:52:26;;;;;;;;;;;43.10;43.30;;;;;;5068229;28;19908;-55
2021/09/03 10:55:49;;;;;;;;;;;44.70;42.50;;;;;;5068314;28;19974;-53
2021/09/03 10:58:57;;;;;;;;;;;45.70;42.40;;;;;;5066990;28;20294;-54
2021/09/03 11:02:02;;;;;;;;;;;45.70;42.30;;;;;;5069393;28;19915;-53
2021/09/03 11:05:09;;;;;;;;;;;43.60;41.90;;;;;;5069340;28;19915;-55
2021/09/03 11:08:32;;;;;;;;;;;41.60;43.30;;;;;;5069097;28;19936;-57
2021/09/03 11:11:38;;;;;;;;;;;38.90;46.00;;;;;;5065824;28;19912;-53
2021/09/03 11:14:42;;;;;;;;;;;40.50;45.80;;;;;;5056534;28;20416;-53
2021/09/03 11:17:46;;;;;;;;;;;43.20;44.50;;;;;;5070132;28;19915;-53
2021/09/03 11:20:54;;;;;;;;;;;45.70;43.20;;;;;;5070082;28;19915;-51
2021/09/03 11:23:58;;;;;;;;;;;46.70;42.20;;;;;;5069718;28;19916;-53
2021/09/03 11:27:05;;;;;;;;;;;44.70;41.40;;;;;;5070003;28;19915;-53
2021/09/03 11:30:12;;;;;;;;;;;43.90;42.10;;;;;;5045938;28;20298;-53
2021/09/03 11:33:17;;;;;;;;;;;44.30;42.90;;;;;;5069849;28;19920;-51
2021/09/03 11:36:21;;;;;;;;;;;45.00;42.40;;;;;;5069974;28;19935;-51
2021/09/03 11:39:25;;;;;;;;;;;46.10;41.90;;;;;;5069834;28;19916;-52
2021/09/03 11:42:31;;;;;;;;;;;42.30;43.60;;;;;;5069715;28;19915;-54
2021/09/03 11:45:38;;;;;;;;;;;42.50;43.40;;;;;;5069740;28;19970;-54
2021/09/03 11:48:44;;;;;;;;;;;41.30;43.70;;;;;;5069526;28;19916;-54
2021/09/03 11:52:01;;;;;;;;;;;41.00;44.00;;;;;;5070813;28;19915;-52
2021/09/03 11:55:08;;;;;;;;;;;42.10;43.40;;;;;;5072422;28;20301;-54
2021/09/03 11:58:15;;;;;;;;;;;41.10;43.20;;;;;;5072869;28;19919;-55
2021/09/03 12:01:22;;;;;;;;;;;38.40;45.00;;;;;;5072755;28;19923;-57
2021/09/03 12:04:27;;;;;;;;;;;39.80;44.10;;;;;;5072406;28;19908;-55
2021/09/03 12:07:31;;;;;;;;;;;41.00;43.80;;;;;;5072923;28;19924;-53
2021/09/03 12:10:41;;;;;;;;;;;43.00;43.30;;;;;;5072600;28;20408;-52
2021/09/03 12:13:53;;;;;;;;;;;42.80;41.70;;;;;;5060180;28;19915;-53
2021/09/03 12:16:59;;;;;;;;;;;39.40;41.60;;;;;;5072794;28;19980;-53
2021/09/03 12:20:16;;;;;;;;;;;40.50;42.60;;;;;;5072392;28;19923;-52
2021/09/03 12:23:20;;;;;;;;;;;39.90;42.60;;;;;;5072600;28;20294;-53
2021/09/03 12:26:35;;;;;;;;;;;42.70;41.30;;;;;;5072618;28;19919;-55
2021/09/03 12:29:39;;;;;;;;;;;44.60;40.00;;;;;;5072284;28;19916;-56
2021/09/03 12:32:42;;;;;;;;;;;44.00;38.40;;;;;;5072265;28;19916;-54
2021/09/03 12:35:47;;;;;;;;;;;45.10;40.20;;;;;;5059406;28;20329;-56
2021/09/03 12:38:53;;;;;;;;;;;45.60;39.30;;;;;;5072373;28;19919;-53
2021/09/03 12:41:58;;;;;;;;;;;45.90;40.40;;;;;;5072067;28;19908;-53
2021/09/03 12:45:02;;;;;;;;;;;46.50;39.90;;;;;;5072137;28;19915;-53
2021/09/03 12:48:06;;;;;;;;;;;47.50;39.80;;;;;;5072290;28;20287;-56
2021/09/03 12:51:17;;;;;;;;;;;47.50;39.60;;;;;;5071792;28;20378;-55
2021/09/03 12:54:22;;;;;;;;;;;47.10;40.00;;;;;;5082273;28;19931;-53
2021/09/03 12:57:26;;;;;;;;;;;45.40;39.90;;;;;;5072081;28;19923;-59
2021/09/03 13:00:30;;;;;;;;;;;45.70;40.60;;;;;;5071760;28;19915;-55
2021/09/03 13:03:34;;;;;;;;;;;45.50;40.60;;;;;;5071546;28;19915;-56
2021/09/03 13:06:38;;;;;;;;;;;45.10;40.40;;;;;;5071734;28;19908;-57
2021/09/03 13:09:43;;;;;;;;;;;45.30;40.50;;;;;;5071604;28;19915;-53
2021/09/03 13:12:47;;;;;;;;;;;42.10;39.70;;;;;;5071521;28;20294;-52
2021/09/03 13:15:53;;;;;;;;;;;40.00;42.70;;;;;;5071197;28;19919;-52
2021/09/03 13:18:57;;;;;;;;;;;41.90;42.10;;;;;;5071453;28;19919;-52
2021/09/03 13:22:02;;;;;;;;;;;39.20;43.20;;;;;;5071435;28;19911;-54
2021/09/03 13:25:07;;;;;;;;;;;35.20;45.90;;;;;;5071162;28;19983;-52
2021/09/03 13:28:11;;;;;;;;;;;37.80;45.30;;;;;;5071693;28;20392;-52
2021/09/03 13:31:19;;;;;;;;;;;40.40;43.70;;;;;;5071408;28;19920;-52
2021/09/03 13:34:24;;;;;;;;;;;42.20;42.20;;;;;;5071269;28;20137;-53
2021/09/03 13:37:28;;;;;;;;;;;43.40;41.10;;;;;;5071152;28;19927;-56
2021/09/03 13:40:33;;;;;;;;;;;43.20;40.10;;;;;;5071015;28;19923;-51
2021/09/03 13:43:37;;;;;;;;;;;42.50;40.50;;;;;;5071020;28;19919;-53
2021/09/03 13:46:42;;;;;;;;;;;41.90;40.60;;;;;;5071054;28;19923;-54
2021/09/03 13:49:47;;;;;;;;;;;42.00;39.80;;;;;;5070874;28;19916;-52
2021/09/03 13:52:50;;;;;;;;;;;41.90;40.50;;;;;;5070318;28;19919;-56
2021/09/03 13:55:57;;;;;;;;;;;41.50;40.70;;;;;;5070372;28;19927;-52
2021/09/03 13:59:01;;;;;;;;;;;39.10;40.60;;;;;;5070830;28;19912;-54
2021/09/03 14:02:07;;;;;;;;;;;37.30;41.10;;;;;;5070483;28;20008;-53
2021/09/03 14:05:11;;;;;;;;;;;35.60;42.30;;;;;;5070441;28;20401;-55
2021/09/03 14:08:15;;;;;;;;;;;36.00;43.70;;;;;;5070725;28;19916;-54
2021/09/03 14:11:19;;;;;;;;;;;36.90;44.00;;;;;;5070896;28;20417;-56
2021/09/03 14:14:23;;;;;;;;;;;37.00;43.90;;;;;;5070371;28;20382;-56
2021/09/03 14:17:27;;;;;;;;;;;37.30;43.70;;;;;;5070646;28;20302;-53
2021/09/03 14:20:31;;;;;;;;;;;37.60;43.20;;;;;;5070713;28;19920;-56
2021/09/03 14:23:36;;;;;;;;;;;37.70;43.30;;;;;;5070582;28;19909;-56
2021/09/03 14:26:41;;;;;;;;;;;37.40;43.00;;;;;;5070336;28;19915;-57
2021/09/03 14:29:44;;;;;;;;;;;37.50;41.90;;;;;;5070376;28;19908;-56
2021/09/03 14:32:49;;;;;;;;;;;37.50;42.30;;;;;;5070360;28;19916;-56
2021/09/03 14:35:53;;;;;;;;;;;36.50;42.80;;;;;;5069941;28;19923;-57
2021/09/03 14:38:57;;;;;;;;;;;35.60;44.70;;;;;;5070548;28;19966;-56
2021/09/03 14:42:02;;;;;;;;;;;35.70;44.30;;;;;;5070549;28;19912;-55
2021/09/03 14:45:07;;;;;;;;;;;36.00;44.90;;;;;;5070436;28;19912;-53
2021/09/03 14:48:10;;;;;;;;;;;36.00;45.70;;;;;;5070474;28;19916;-57
2021/09/03 14:51:14;;;;;;;;;;;35.70;44.50;;;;;;5070091;28;19923;-53
2021/09/03 14:54:18;;;;;;;;;;;35.30;45.90;;;;;;5070273;28;19935;-54
2021/09/03 14:57:22;;;;;;;;;;;34.80;46.30;;;;;;5070060;28;20290;-52
2021/09/03 15:00:26;;;;;;;;;;;34.40;46.70;;;;;;5070093;28;20427;-52
2021/09/03 15:03:31;;;;;;;;;;;34.20;47.30;;;;;;5070138;28;19950;-51
2021/09/03 15:06:36;;;;;;;;;;;34.00;46.70;;;;;;5070005;28;19916;-51
2021/09/03 15:09:42;;;;;;;;;;;33.90;47.00;;;;;;5070186;28;19916;-51
2021/09/03 15:12:50;;;;;;;;;;;33.80;47.00;;;;;;5070295;28;19915;-51
2021/09/03 15:15:58;;;;;;;;;;;33.80;46.10;;;;;;5069692;28;19919;-51
2021/09/03 15:19:02;;;;;;;;;;;33.50;46.00;;;;;;5069756;28;19934;-54
2021/09/03 15:22:06;;;;;;;;;;;33.50;47.10;;;;;;5069652;28;19920;-54
2021/09/03 15:25:11;;;;;;;;;;;33.60;46.70;;;;;;5070078;28;20307;-51
2021/09/03 15:28:16;;;;;;;;;;;33.60;47.30;;;;;;5073417;28;19915;-51
2021/09/03 15:31:20;;;;;;;;;;;33.40;47.20;;;;;;5073664;28;19911;-52
2021/09/03 15:34:24;;;;;;;;;;;33.20;47.70;;;;;;5073506;28;20370;-51
2021/09/03 15:37:28;;;;;;;;;;;33.10;47.40;;;;;;5073249;28;20397;-54
2021/09/03 15:40:32;;;;;;;;;;;32.90;48.60;;;;;;5073307;28;19915;-52
2021/09/03 15:43:36;;;;;;;;;;;32.80;48.20;;;;;;5073237;28;19978;-51
2021/09/03 15:46:39;;;;;;;;;;;32.90;48.40;;;;;;5072854;28;20389;-51
2021/09/03 15:49:43;;;;;;;;;;;32.70;48.00;;;;;;5073199;28;19923;-51
2021/09/03 15:52:47;;;;;;;;;;;32.50;48.50;;;;;;5072873;28;20297;-52
2021/09/03 15:55:58;;;;;;;;;;;32.30;48.70;;;;;;5073143;28;19926;-54
2021/09/03 15:59:04;;;;;;;;;;;32.20;48.60;;;;;;5049934;28;20290;-52
2021/09/03 16:02:09;;;;;;;;;;;32.10;48.80;;;;;;5073161;28;20274;-51
2021/09/03 16:05:14;;;;;;;;;;;32.00;48.50;;;;;;5072930;28;19935;-52
2021/09/03 16:08:18;;;;;;;;;;;32.00;48.40;;;;;;5072974;28;19919;-51
2021/09/03 16:11:22;;;;;;;;;;;31.90;48.70;;;;;;5072774;28;20389;-52
2021/09/03 16:14:27;;;;;;;;;;;31.60;49.30;;;;;;5072861;28;19915;-52
2021/09/03 16:17:31;;;;;;;;;;;31.40;48.80;;;;;;5060160;28;19919;-51
2021/09/03 16:20:35;;;;;;;;;;;31.30;49.20;;;;;;5072899;28;19920;-51
2021/09/03 16:23:39;;;;;;;;;;;31.10;49.90;;;;;;5072932;28;19915;-51
2021/09/03 16:26:43;;;;;;;;;;;31.00;49.70;;;;;;5072556;28;20282;-51
2021/09/03 16:29:48;;;;;;;;;;;30.90;50.50;;;;;;5072983;28;19908;-53
2021/09/03 16:32:51;;;;;;;;;;;30.80;50.70;;;;;;5072132;28;19919;-53
2021/09/03 16:35:55;;;;;;;;;;;30.60;50.50;;;;;;5072446;28;20298;-51
2021/09/03 16:38:59;;;;;;;;;;;30.60;50.50;;;;;;5071659;28;20362;-53
2021/09/03 16:42:04;;;;;;;;;;;30.40;50.60;;;;;;5071999;28;19919;-51
2021/09/03 16:45:09;;;;;;;;;;;30.30;51.20;;;;;;5072136;28;19915;-56
2021/09/03 16:48:14;;;;;;;;;;;30.10;51.30;;;;;;5071770;28;19915;-51
2021/09/03 16:51:19;;;;;;;;;;;29.90;51.50;;;;;;5071820;28;20321;-55
2021/09/03 16:54:23;;;;;;;;;;;29.60;51.60;;;;;;5059527;28;19913;-53
2021/09/03 16:57:30;;;;;;;;;;;29.50;52.00;;;;;;5071705;28;19913;-55
2021/09/03 17:00:35;;;;;;;;;;;29.40;51.90;;;;;;5072032;28;19917;-52
2021/09/03 17:03:38;;;;;;;;;;;29.30;52.60;;;;;;5071777;28;19915;-55
2021/09/03 17:06:43;;;;;;;;;;;29.10;52.90;;;;;;5071489;28;20401;-53
2021/09/03 17:09:46;;;;;;;;;;;29.00;53.40;;;;;;5071771;28;20507;-53
2021/09/03 17:12:50;;;;;;;;;;;28.80;53.00;;;;;;5058995;28;19916;-51
2021/09/03 17:15:56;;;;;;;;;;;28.60;53.40;;;;;;5071538;28;20317;-56
2021/09/03 17:19:00;;;;;;;;;;;28.40;54.50;;;;;;5070947;28;20294;-55
2021/09/03 17:22:04;;;;;;;;;;;28.20;55.30;;;;;;5071375;28;19915;-52
2021/09/03 17:25:08;;;;;;;;;;;28.00;54.60;;;;;;5071311;28;19931;-53
2021/09/03 17:28:12;;;;;;;;;;;27.80;54.90;;;;;;5071034;28;20385;-53
2021/09/03 17:31:16;;;;;;;;;;;27.60;55.50;;;;;;5070941;28;19915;-55
2021/09/03 17:34:21;;;;;;;;;;;27.40;55.40;;;;;;5071342;28;19916;-54
2021/09/03 17:37:25;;;;;;;;;;;27.30;56.10;;;;;;5070886;28;20307;-54
2021/09/03 17:40:32;;;;;;;;;;;27.10;56.40;;;;;;5058632;28;20304;-51
2021/09/03 17:43:37;;;;;;;;;;;26.90;56.70;;;;;;5071232;28;20388;-52
2021/09/03 17:46:40;;;;;;;;;;;26.70;57.10;;;;;;5071070;28;19927;-51
2021/09/03 17:49:47;;;;;;;;;;;26.40;57.80;;;;;;5069698;28;20370;-52
2021/09/03 17:52:51;;;;;;;;;;;26.20;58.20;;;;;;5070682;28;20389;-53
2021/09/03 17:55:55;;;;;;;;;;;26.00;58.20;;;;;;5070784;28;19919;-51
2021/09/03 17:58:59;;;;;;;;;;;25.90;58.20;;;;;;5070263;28;19912;-53